createdAt,value
2023-05-03T00:00:21.096Z,1.40
2023-05-03T00:03:13.789Z,1.05
2023-05-03T00:06:13.474Z,1.57
2023-05-03T00:09:04.887Z,1.30
2023-05-03T00:11:56.370Z,1.10
2023-05-03T00:14:48.880Z,1.40
2023-05-03T00:17:40.592Z,1.20
2023-05-03T00:20:32.260Z,1.42
2023-05-03T00:23:23.993Z,1.25
2023-05-03T00:26:15.654Z,1.20
2023-05-03T00:29:07.201Z,1.30
2023-05-03T00:32:00.424Z,1.52
2023-05-03T00:34:56.465Z,1.40
2023-05-03T00:37:47.765Z,1.25
2023-05-03T00:40:39.069Z,1.12
2023-05-03T00:43:30.377Z,1.42
2023-05-03T00:46:22.085Z,1.30
2023-05-03T00:49:13.786Z,1.40
2023-05-03T00:52:05.146Z,1.37
2023-05-03T00:54:57.835Z,1.50
2023-05-03T00:57:49.274Z,1.45
2023-05-03T01:00:40.338Z,1.57
2023-05-03T01:03:32.725Z,1.45
2023-05-03T01:06:29.096Z,1.57
2023-05-03T01:09:24.399Z,1.32
2023-05-03T01:12:23.069Z,1.40
2023-05-03T01:15:18.463Z,1.50
2023-05-03T01:18:13.260Z,1.22
2023-05-03T01:21:06.641Z,1.80
2023-05-03T01:24:01.802Z,1.37
2023-05-03T01:26:53.120Z,1.57
2023-05-03T01:29:44.764Z,1.40
2023-05-03T01:32:40.340Z,1.57
2023-05-03T01:35:38.047Z,1.32
2023-05-03T01:38:32.089Z,1.40
2023-05-03T01:41:25.511Z,1.42
2023-05-03T01:44:18.071Z,1.20
2023-05-03T01:47:10.822Z,1.40
2023-05-03T01:50:03.040Z,1.67
2023-05-03T01:52:54.582Z,1.55
2023-05-03T01:55:45.546Z,1.45
2023-05-03T01:58:37.043Z,1.67
2023-05-03T02:01:28.787Z,1.60
2023-05-03T02:04:20.245Z,1.80
2023-05-03T02:07:11.439Z,2.12
2023-05-03T02:10:02.842Z,2.20
2023-05-03T02:12:54.445Z,1.90
2023-05-03T02:15:45.556Z,1.80
2023-05-03T02:18:36.970Z,2.00
2023-05-03T02:21:28.520Z,1.90
2023-05-03T02:24:20.305Z,1.87
2023-05-03T02:27:12.774Z,1.90
2023-05-03T02:30:04.779Z,2.15
2023-05-03T02:32:57.803Z,2.25
2023-05-03T02:35:49.241Z,2.05
2023-05-03T02:38:40.403Z,2.30
2023-05-03T02:41:31.818Z,2.00
2023-05-03T02:44:23.141Z,1.57
2023-05-03T02:47:14.519Z,1.60
2023-05-03T02:50:07.921Z,1.65
2023-05-03T02:52:59.578Z,1.40
2023-05-03T02:55:50.873Z,1.60
2023-05-03T02:58:42.473Z,1.77
2023-05-03T03:01:35.699Z,1.62
2023-05-03T03:04:28.068Z,1.85
2023-05-03T03:07:20.026Z,1.62
2023-05-03T03:10:12.908Z,2.12
2023-05-03T03:13:04.043Z,2.10
2023-05-03T03:15:57.147Z,2.00
2023-05-03T03:18:48.572Z,2.12
2023-05-03T03:21:39.641Z,1.87
2023-05-03T03:24:30.805Z,1.80
2023-05-03T03:27:23.318Z,2.42
2023-05-03T03:30:15.464Z,1.72
2023-05-03T03:33:17.443Z,1.72
2023-05-03T03:36:11.150Z,1.80
2023-05-03T03:39:04.968Z,1.92
2023-05-03T03:42:02.134Z,1.90
2023-05-03T03:44:50.652Z,1.65
2023-05-03T03:47:42.083Z,1.98
2023-05-03T03:50:34.391Z,2.00
2023-05-03T03:53:29.502Z,1.75
2023-05-03T03:56:22.006Z,1.85
2023-05-03T03:59:13.685Z,1.95
2023-05-03T04:02:06.437Z,2.15
2023-05-03T04:04:58.863Z,1.72
2023-05-03T04:07:50.271Z,1.85
2023-05-03T04:10:43.011Z,1.95
2023-05-03T04:13:34.466Z,1.77
2023-05-03T04:16:26.128Z,1.80
2023-05-03T04:19:18.957Z,1.95
2023-05-03T04:22:10.224Z,2.10
2023-05-03T04:25:04.122Z,2.20
2023-05-03T04:27:55.878Z,2.08
2023-05-03T04:30:48.500Z,1.87
2023-05-03T04:33:41.422Z,2.02
2023-05-03T04:36:33.904Z,2.35
2023-05-03T04:39:25.882Z,2.35
2023-05-03T04:42:17.632Z,2.58
2023-05-03T04:45:11.519Z,2.40
2023-05-03T04:48:04.657Z,2.70
2023-05-03T04:50:56.705Z,2.50
2023-05-03T04:53:48.313Z,2.60
2023-05-03T04:56:40.757Z,3.80
2023-05-03T04:59:33.820Z,4.40
2023-05-03T05:02:25.218Z,3.90
2023-05-03T05:05:18.207Z,4.90
2023-05-03T05:08:10.596Z,5.08
2023-05-03T05:11:05.598Z,5.62
2023-05-03T05:13:57.288Z,5.53
2023-05-03T05:16:48.682Z,5.95
2023-05-03T05:19:40.020Z,5.62
2023-05-03T05:38:23.220Z,4.35
2023-05-03T05:41:16.382Z,4.65
2023-05-03T05:44:08.687Z,3.92
2023-05-03T05:47:00.149Z,4.53
2023-05-03T05:49:51.670Z,3.98
2023-05-03T05:52:42.969Z,3.92
2023-05-03T05:55:36.468Z,3.80
2023-05-03T05:58:28.358Z,4.10
2023-05-03T06:04:41.889Z,3.25
2023-05-03T06:07:33.664Z,3.80
2023-05-03T06:10:25.155Z,3.40
2023-05-03T06:13:18.102Z,3.50
2023-05-03T06:16:12.792Z,3.72
2023-05-03T06:19:05.133Z,3.27
2023-05-03T06:21:56.828Z,3.20
2023-05-03T06:24:50.913Z,3.52
2023-05-03T06:27:42.472Z,3.08
2023-05-03T06:30:35.573Z,3.47
2023-05-03T06:33:28.965Z,3.10
2023-05-03T06:36:20.502Z,3.27
2023-05-03T06:39:12.052Z,3.30
2023-05-03T06:42:04.363Z,3.27
2023-05-03T06:44:57.372Z,2.87
2023-05-03T06:47:50.506Z,2.95
2023-05-03T06:50:42.030Z,3.10
2023-05-03T06:53:33.390Z,3.10
2023-05-03T06:56:25.389Z,3.10
2023-05-03T06:59:17.574Z,3.85
2023-05-03T07:02:09.553Z,3.08
2023-05-03T07:05:01.451Z,3.12
2023-05-03T07:07:52.759Z,3.15
2023-05-03T07:10:44.233Z,3.10
2023-05-03T07:13:35.546Z,2.90
2023-05-03T07:16:26.921Z,2.80
2023-05-03T07:19:20.858Z,3.40
2023-05-03T07:22:11.950Z,3.52
2023-05-03T07:25:05.092Z,3.20
2023-05-03T07:27:56.500Z,3.30
2023-05-03T07:30:48.288Z,3.30
2023-05-03T07:33:39.806Z,3.75
2023-05-03T07:36:35.619Z,3.70
2023-05-03T07:39:26.954Z,4.33
2023-05-03T07:45:03.074Z,4.00
2023-05-03T07:47:55.561Z,3.72
2023-05-03T07:50:47.052Z,4.25
2023-05-03T07:53:40.475Z,4.40
2023-05-03T07:56:31.964Z,4.00
2023-05-03T07:59:23.256Z,3.25
2023-05-03T08:02:14.725Z,3.67
2023-05-03T08:05:07.723Z,3.25
2023-05-03T08:07:59.177Z,3.45
2023-05-03T08:10:50.231Z,3.30
2023-05-03T08:13:41.783Z,3.50
2023-05-03T08:16:33.426Z,3.27
2023-05-03T08:19:24.692Z,3.33
2023-05-03T08:22:16.598Z,2.80
2023-05-03T08:25:09.075Z,2.90
2023-05-03T08:28:00.763Z,3.05
2023-05-03T08:30:53.516Z,2.83
2023-05-03T08:33:44.913Z,2.60
2023-05-03T08:36:38.772Z,2.40
2023-05-03T08:39:31.536Z,2.83
2023-05-03T08:42:24.512Z,2.70
2023-05-03T08:45:17.195Z,2.67
2023-05-03T08:48:12.014Z,2.37
2023-05-03T08:51:06.038Z,2.30
2023-05-03T08:53:57.523Z,2.08
2023-05-03T08:56:50.183Z,1.92
2023-05-03T08:59:50.530Z,2.17
2023-05-03T09:02:42.452Z,2.50
2023-05-03T09:05:35.978Z,2.30
2023-05-03T09:08:28.038Z,2.40
2023-05-03T09:11:25.425Z,2.12
2023-05-03T09:14:18.321Z,1.95
2023-05-03T09:17:17.335Z,2.12
2023-05-03T09:20:10.518Z,1.75
2023-05-03T09:23:02.506Z,2.00
2023-05-03T09:25:56.196Z,2.12
2023-05-03T09:28:47.593Z,2.17
2023-05-03T09:31:41.564Z,1.90
2023-05-03T09:34:33.188Z,2.25
2023-05-03T09:37:28.790Z,2.25
2023-05-03T09:40:20.546Z,1.47
2023-05-03T09:43:14.698Z,2.05
2023-05-03T09:46:15.128Z,1.87
2023-05-03T09:49:12.896Z,1.80
2023-05-03T09:52:07.624Z,1.67
2023-05-03T09:55:02.463Z,1.75
2023-05-03T09:57:58.299Z,1.90
2023-05-03T10:00:52.817Z,2.60
2023-05-03T10:03:50.109Z,1.47
2023-05-03T10:06:46.699Z,1.60
2023-05-03T10:09:47.348Z,1.55
2023-05-03T10:12:45.767Z,1.90
2023-05-03T10:15:43.674Z,1.85
2023-05-03T10:18:42.329Z,1.75
2023-05-03T10:21:42.369Z,1.50
2023-05-03T10:24:36.271Z,1.35
2023-05-03T10:27:34.058Z,1.72
2023-05-03T10:30:39.617Z,1.50
2023-05-03T10:33:36.993Z,1.45
2023-05-03T10:39:33.457Z,1.42
2023-05-03T10:42:29.374Z,1.20
2023-05-03T10:45:30.046Z,1.30
2023-05-03T10:48:23.129Z,7.92
2023-05-03T10:55:28.877Z,1.90
2023-05-03T10:58:21.794Z,1.72
2023-05-03T11:01:15.614Z,1.57
2023-05-03T11:04:10.445Z,1.80
2023-05-03T11:07:02.771Z,1.52
2023-05-03T11:09:54.351Z,1.87
2023-05-03T11:12:45.873Z,1.50
2023-05-03T11:15:37.396Z,1.65
2023-05-03T11:18:29.925Z,1.40
2023-05-03T11:21:22.101Z,1.90
2023-05-03T11:24:13.545Z,2.00
2023-05-03T11:27:07.965Z,1.60
2023-05-03T11:29:59.755Z,1.60
2023-05-03T11:32:51.388Z,1.35
2023-05-03T11:35:43.655Z,1.30
2023-05-03T11:38:35.770Z,1.62
2023-05-03T11:41:27.711Z,1.65
2023-05-03T11:44:19.008Z,1.35
2023-05-03T11:47:11.118Z,1.60
2023-05-03T11:50:02.447Z,1.37
2023-05-03T11:52:54.300Z,1.42
2023-05-03T11:58:35.536Z,1.50
2023-05-03T12:01:28.978Z,1.50
2023-05-03T12:04:20.928Z,1.20
2023-05-03T12:07:15.420Z,1.57
2023-05-03T12:10:23.120Z,1.22
2023-05-03T12:13:30.498Z,1.50
2023-05-03T12:19:03.440Z,1.40
2023-05-03T12:22:13.297Z,1.30
2023-05-03T12:24:49.671Z,1.20
2023-05-03T12:27:41.580Z,1.02
2023-05-03T12:30:34.079Z,1.50
2023-05-03T12:33:28.735Z,1.55
2023-05-03T12:36:21.379Z,1.40
2023-05-03T12:39:15.936Z,1.50
2023-05-03T12:42:07.944Z,1.25
2023-05-03T12:45:04.149Z,1.37
2023-05-03T12:47:54.563Z,1.50
2023-05-03T12:50:46.271Z,1.40
2023-05-03T12:53:39.304Z,1.50
2023-05-03T12:56:33.305Z,1.42
2023-05-03T13:03:19.654Z,1.32
2023-05-03T13:05:23.307Z,1.52
2023-05-03T13:08:10.319Z,1.50
2023-05-03T13:11:02.495Z,1.12
2023-05-03T13:13:55.606Z,1.10
2023-05-03T13:16:47.952Z,1.40
2023-05-03T13:19:47.272Z,1.20
2023-05-03T13:22:43.985Z,1.07
2023-05-03T13:25:35.606Z,1.25
2023-05-03T13:28:27.912Z,1.10
2023-05-03T13:31:19.912Z,0.90
2023-05-03T13:34:11.641Z,1.12
2023-05-03T13:37:04.702Z,1.10
2023-05-03T13:39:56.965Z,1.05
2023-05-03T13:42:48.780Z,1.02
2023-05-03T13:45:40.260Z,1.12
2023-05-03T13:48:32.477Z,1.10
2023-05-03T13:51:25.493Z,1.12
2023-05-03T13:54:17.308Z,1.00
2023-05-03T13:57:08.659Z,1.30
2023-05-03T14:00:00.030Z,1.10
2023-05-03T14:02:52.657Z,1.00
2023-05-03T14:05:44.157Z,0.90
2023-05-03T14:08:37.197Z,1.20
2023-05-03T14:11:29.647Z,1.27
2023-05-03T14:14:21.440Z,1.20
2023-05-03T14:17:13.365Z,1.30
2023-05-03T14:20:08.105Z,0.95
2023-05-03T14:22:59.417Z,1.22
2023-05-03T14:25:50.991Z,1.27
2023-05-03T14:28:42.493Z,1.20
2023-05-03T14:31:34.309Z,1.10
2023-05-03T14:34:25.807Z,0.98
2023-05-03T14:37:17.325Z,1.10
2023-05-03T14:40:11.163Z,1.10
2023-05-03T14:43:02.484Z,1.20
2023-05-03T14:45:54.115Z,1.20
2023-05-03T14:48:45.618Z,1.20
2023-05-03T14:51:37.053Z,1.07
2023-05-03T14:54:28.685Z,1.17
2023-05-03T14:57:19.962Z,1.15
2023-05-03T15:00:15.310Z,1.30
2023-05-03T15:03:11.180Z,1.10
2023-05-03T15:06:05.694Z,1.27
2023-05-03T15:08:58.569Z,1.00
2023-05-03T15:11:50.009Z,1.10
2023-05-03T15:14:41.662Z,1.52
2023-05-03T15:17:33.066Z,1.35
2023-05-03T15:20:25.656Z,1.20
2023-05-03T15:23:17.191Z,1.20
2023-05-03T15:26:09.073Z,1.30
2023-05-03T15:29:00.609Z,1.30
2023-05-03T15:31:52.334Z,1.30
2023-05-03T15:34:43.721Z,1.50
2023-05-03T15:37:38.869Z,1.10
2023-05-03T15:40:30.684Z,1.40
2023-05-03T15:43:22.107Z,1.30
2023-05-03T15:46:13.677Z,1.32
2023-05-03T15:49:05.871Z,1.30
2023-05-03T15:51:57.504Z,1.17
2023-05-03T15:54:48.739Z,1.10
2023-05-03T15:57:40.319Z,1.40
2023-05-03T16:00:33.838Z,1.42
2023-05-03T16:03:25.384Z,1.35
2023-05-03T16:06:18.851Z,1.17
2023-05-03T16:09:11.383Z,1.30
2023-05-03T16:12:02.752Z,1.10
2023-05-03T16:14:57.651Z,1.22
2023-05-03T16:17:49.877Z,1.30
2023-05-03T16:20:41.398Z,1.47
2023-05-03T16:23:33.949Z,1.20
2023-05-03T16:26:31.051Z,1.30
2023-05-03T16:29:24.788Z,1.30
2023-05-03T16:32:18.253Z,1.47
2023-05-03T16:35:17.771Z,1.30
2023-05-03T16:38:19.183Z,1.37
2023-05-03T16:41:17.035Z,1.10
2023-05-03T16:44:16.510Z,1.00
2023-05-03T16:47:08.914Z,1.10
2023-05-03T16:50:03.747Z,1.10
2023-05-03T16:52:57.401Z,1.20
2023-05-03T16:55:52.290Z,1.40
2023-05-03T16:58:46.276Z,1.27
2023-05-03T17:01:46.640Z,1.57
2023-05-03T17:04:42.093Z,1.20
2023-05-03T17:07:41.276Z,1.05
2023-05-03T17:10:35.379Z,1.37
2023-05-03T17:13:31.516Z,1.25
2023-05-03T17:16:27.696Z,1.40
2023-05-03T17:19:23.488Z,1.42
2023-05-03T17:22:21.496Z,1.62
2023-05-03T17:25:20.659Z,1.20
2023-05-03T17:28:17.401Z,1.35
2023-05-03T17:31:12.085Z,1.40
2023-05-03T17:34:18.133Z,1.30
2023-05-03T17:37:12.208Z,1.30
2023-05-03T17:40:08.642Z,1.45
2023-05-03T17:43:04.373Z,1.57
2023-05-03T17:45:58.536Z,1.40
2023-05-03T17:48:57.928Z,1.60
2023-05-03T17:51:51.974Z,2.50
2023-05-03T17:54:47.322Z,1.62
2023-05-03T17:57:44.840Z,3.10
2023-05-03T18:00:37.919Z,1.67
2023-05-03T18:03:32.761Z,2.00
2023-05-03T18:06:27.895Z,1.70
2023-05-03T18:09:25.865Z,1.57
2023-05-03T18:12:27.060Z,1.80
2023-05-03T18:15:21.725Z,2.37
2023-05-03T18:18:15.721Z,2.80
2023-05-03T18:21:12.906Z,2.85
2023-05-03T18:24:05.300Z,2.17
2023-05-03T18:27:00.756Z,1.65
2023-05-03T18:30:07.212Z,1.45
2023-05-03T18:33:02.648Z,1.70
2023-05-03T18:35:56.816Z,1.60
2023-05-03T18:38:55.141Z,1.45
2023-05-03T18:41:49.816Z,1.50
2023-05-03T18:44:42.896Z,1.52
2023-05-03T18:47:37.539Z,1.47
2023-05-03T18:50:37.346Z,1.92
2023-05-03T18:53:32.852Z,2.70
2023-05-03T18:56:25.032Z,2.50
2023-05-03T18:59:20.818Z,1.60
2023-05-03T19:02:14.579Z,1.80
2023-05-03T19:05:13.458Z,2.12
2023-05-03T19:08:06.773Z,1.87
2023-05-03T19:11:01.950Z,1.90
2023-05-03T19:13:57.202Z,1.60
2023-05-03T19:16:52.184Z,1.67
2023-05-03T19:19:46.623Z,1.60
2023-05-03T19:22:41.590Z,2.15
2023-05-03T19:25:34.870Z,1.67
2023-05-03T19:28:28.107Z,1.55
2023-05-03T19:31:24.141Z,1.70
2023-05-03T19:34:28.165Z,1.82
2023-05-03T19:37:24.199Z,2.50
2023-05-03T19:40:18.723Z,1.77
2023-05-03T19:43:16.804Z,2.70
2023-05-03T19:46:11.257Z,1.82
2023-05-03T19:49:13.149Z,2.45
2023-05-03T19:52:06.233Z,2.08
2023-05-03T19:55:07.811Z,2.30
2023-05-03T19:58:02.575Z,2.27
2023-05-03T20:00:55.371Z,2.72
2023-05-03T20:03:52.136Z,3.30
2023-05-03T20:06:44.826Z,2.92
2023-05-03T20:09:38.650Z,2.72
2023-05-03T20:12:35.099Z,2.65
2023-05-03T20:15:29.765Z,2.40
2023-05-03T20:18:26.722Z,2.55
2023-05-03T20:21:19.260Z,3.08
2023-05-03T20:24:14.698Z,3.17
2023-05-03T20:27:10.859Z,3.45
2023-05-03T20:30:11.361Z,2.90
2023-05-03T20:33:05.234Z,2.77
2023-05-03T20:36:00.493Z,2.85
2023-05-03T20:38:59.121Z,2.05
2023-05-03T20:41:54.181Z,1.70
2023-05-03T20:44:47.841Z,1.72
2023-05-03T20:47:42.718Z,2.00
2023-05-03T20:50:37.024Z,1.90
2023-05-03T20:53:31.686Z,2.25
2023-05-03T20:56:26.306Z,2.02
2023-05-03T20:59:18.408Z,3.10
2023-05-03T21:02:13.327Z,2.00
2023-05-03T21:05:08.145Z,1.92
2023-05-03T21:08:05.497Z,2.95
2023-05-03T21:10:59.290Z,2.12
2023-05-03T21:13:56.457Z,2.15
2023-05-03T21:16:49.933Z,2.70
2023-05-03T21:19:42.518Z,3.35
2023-05-03T21:22:42.111Z,3.12
2023-05-03T21:25:37.244Z,2.45
2023-05-03T21:28:33.182Z,2.30
2023-05-03T21:31:28.414Z,2.50
2023-05-03T21:34:22.115Z,2.40
2023-05-03T21:37:17.989Z,2.62
2023-05-03T21:40:15.210Z,2.35
2023-05-03T21:43:09.938Z,2.40
2023-05-03T21:46:05.551Z,2.08
2023-05-03T21:48:58.195Z,2.30
2023-05-03T21:51:52.533Z,2.35
2023-05-03T21:54:45.240Z,2.33
2023-05-03T21:57:42.913Z,2.15
2023-05-03T22:03:12.964Z,2.25
2023-05-03T22:08:43.184Z,2.08
2023-05-03T22:14:13.916Z,2.00
2023-05-03T22:17:05.365Z,2.20
2023-05-03T22:19:57.071Z,2.45
2023-05-03T22:28:07.852Z,2.27
2023-05-03T22:33:39.126Z,2.52
2023-05-03T22:36:30.458Z,2.22
2023-05-03T22:39:22.095Z,2.02
2023-05-03T22:42:13.334Z,2.40
2023-05-03T22:47:43.624Z,2.60
2023-05-03T22:50:36.637Z,2.30
2023-05-03T22:56:09.902Z,2.00
2023-05-03T22:59:03.715Z,2.40
2023-05-03T23:01:55.293Z,1.90
2023-05-03T23:04:46.538Z,1.95
2023-05-03T23:07:38.255Z,2.00
2023-05-03T23:13:10.016Z,3.52
2023-05-03T23:16:01.452Z,1.82
2023-05-03T23:18:54.862Z,1.87
2023-05-03T23:24:23.387Z,1.90
2023-05-03T23:27:14.466Z,1.92
2023-05-03T23:30:07.453Z,1.72
2023-05-03T23:32:59.475Z,1.72
2023-05-03T23:38:30.820Z,1.90
2023-05-03T23:41:22.019Z,1.90
2023-05-03T23:44:13.225Z,1.72
2023-05-03T23:47:04.332Z,1.80
2023-05-03T23:49:55.615Z,1.90
2023-05-03T23:55:37.728Z,1.77
2023-05-03T23:58:31.310Z,1.80
